createdAt,value
2018-03-03T00:00:20.210Z,-8.40
2018-03-03T00:02:47.749Z,-8.40
2018-03-03T00:05:15.321Z,-8.40
2018-03-03T00:07:42.854Z,-8.50
2018-03-03T00:10:11.251Z,-8.50
2018-03-03T00:12:40.511Z,-8.60
2018-03-03T00:15:08.106Z,-8.50
2018-03-03T00:17:36.077Z,-8.50
2018-03-03T00:20:03.942Z,-8.50
2018-03-03T00:22:41.397Z,-8.60
2018-03-03T00:25:09.003Z,-8.60
2018-03-03T00:27:36.518Z,-8.60
2018-03-03T00:30:04.037Z,-8.60
2018-03-03T00:32:31.580Z,-8.70
2018-03-03T00:34:59.144Z,-8.60
2018-03-03T00:37:27.175Z,-8.70
2018-03-03T00:39:54.714Z,-8.70
2018-03-03T00:42:22.707Z,-8.70
2018-03-03T00:44:50.303Z,-8.80
2018-03-03T00:47:17.872Z,-8.80
2018-03-03T00:49:45.400Z,-8.90
2018-03-03T00:52:13.935Z,-8.90
2018-03-03T00:54:41.447Z,-9.00
2018-03-03T00:57:09.723Z,-8.90
2018-03-03T00:59:38.000Z,-8.90
2018-03-03T01:02:06.291Z,-8.90
2018-03-03T01:04:34.722Z,-8.90
2018-03-03T01:07:02.252Z,-8.90
2018-03-03T01:09:29.771Z,-8.90
2018-03-03T01:11:57.302Z,-8.80
2018-03-03T01:14:24.816Z,-8.80
2018-03-03T01:16:52.465Z,-8.90
2018-03-03T01:19:20.742Z,-8.80
2018-03-03T01:21:49.222Z,-8.80
2018-03-03T01:24:17.509Z,-8.90
2018-03-03T01:26:45.779Z,-8.80
2018-03-03T01:29:14.065Z,-8.90
2018-03-03T01:31:41.578Z,-8.90
2018-03-03T01:34:09.103Z,-8.90
2018-03-03T01:36:36.638Z,-8.90
2018-03-03T01:39:04.169Z,-8.90
2018-03-03T01:41:31.695Z,-8.90
2018-03-03T01:43:59.240Z,-8.90
2018-03-03T01:46:26.871Z,-8.90
2018-03-03T01:48:55.259Z,-9.00
2018-03-03T01:51:34.726Z,-9.00
2018-03-03T01:54:02.247Z,-8.90
2018-03-03T01:56:30.659Z,-9.00
2018-03-03T01:58:58.176Z,-9.00
2018-03-03T02:01:25.727Z,-9.00
2018-03-03T02:03:53.407Z,-9.00
2018-03-03T02:06:21.721Z,-9.00
2018-03-03T02:08:49.239Z,-9.00
2018-03-03T02:11:18.496Z,-9.00
2018-03-03T02:13:46.013Z,-9.00
2018-03-03T02:16:14.515Z,-9.00
2018-03-03T02:18:42.023Z,-9.10
2018-03-03T02:21:09.582Z,-9.00
2018-03-03T02:23:37.169Z,-9.00
2018-03-03T02:26:10.032Z,-9.00
2018-03-03T02:28:37.843Z,-9.10
2018-03-03T02:31:05.468Z,-9.10
2018-03-03T02:33:33.000Z,-9.10
2018-03-03T02:36:00.644Z,-9.10
2018-03-03T02:38:28.161Z,-9.10
2018-03-03T02:40:56.451Z,-9.10
2018-03-03T02:43:24.783Z,-9.10
2018-03-03T02:45:52.299Z,-9.20
2018-03-03T02:48:20.062Z,-9.20
2018-03-03T02:50:47.695Z,-9.20
2018-03-03T02:53:15.242Z,-9.20
2018-03-03T02:55:42.759Z,-9.10
2018-03-03T02:58:10.426Z,-9.10
2018-03-03T03:00:37.947Z,-9.10
2018-03-03T03:03:06.356Z,-9.10
2018-03-03T03:05:34.099Z,-9.20
2018-03-03T03:08:02.463Z,-9.20
2018-03-03T03:10:30.791Z,-9.20
2018-03-03T03:12:58.349Z,-9.20
2018-03-03T03:15:25.932Z,-9.20
2018-03-03T03:17:53.454Z,-9.20
2018-03-03T03:20:20.972Z,-9.20
2018-03-03T03:22:48.505Z,-9.20
2018-03-03T03:25:16.032Z,-9.20
2018-03-03T03:27:43.547Z,-9.20
2018-03-03T03:30:11.201Z,-9.20
2018-03-03T03:32:38.805Z,-9.30
2018-03-03T03:35:07.113Z,-9.30
2018-03-03T03:37:34.623Z,-9.30
2018-03-03T03:40:02.212Z,-9.30
2018-03-03T03:42:29.758Z,-9.40
2018-03-03T03:44:58.524Z,-9.40
2018-03-03T03:47:26.140Z,-9.40
2018-03-03T03:49:53.689Z,-9.40
2018-03-03T03:52:21.356Z,-9.30
2018-03-03T03:54:48.897Z,-9.40
2018-03-03T03:57:16.550Z,-9.40
2018-03-03T03:59:44.884Z,-9.40
2018-03-03T04:02:12.510Z,-9.40
2018-03-03T04:04:40.331Z,-9.40
2018-03-03T04:07:08.050Z,-9.40
2018-03-03T04:09:36.528Z,-9.30
2018-03-03T04:12:04.463Z,-9.30
2018-03-03T04:14:33.286Z,-9.30
2018-03-03T04:17:00.953Z,-9.40
2018-03-03T04:19:28.655Z,-9.30
2018-03-03T04:21:56.174Z,-9.40
2018-03-03T04:24:23.696Z,-9.40
2018-03-03T04:26:51.212Z,-9.40
2018-03-03T04:29:18.729Z,-9.40
2018-03-03T04:31:47.024Z,-9.40
2018-03-03T04:34:14.524Z,-9.40
2018-03-03T04:36:42.048Z,-9.50
2018-03-03T04:39:09.603Z,-9.50
2018-03-03T04:41:37.146Z,-9.50
2018-03-03T04:44:05.427Z,-9.50
2018-03-03T04:46:33.711Z,-9.50
2018-03-03T04:49:01.350Z,-9.50
2018-03-03T04:51:29.032Z,-9.50
2018-03-03T04:53:57.498Z,-9.40
2018-03-03T04:56:28.189Z,-9.50
2018-03-03T04:58:58.532Z,-9.50
2018-03-03T05:01:30.713Z,-9.50
2018-03-03T05:17:31.735Z,-9.60
2018-03-03T05:20:11.191Z,-9.60
2018-03-03T05:36:36.603Z,-9.60
2018-03-03T05:52:36.619Z,-9.70
2018-03-03T05:55:10.975Z,-9.70
2018-03-03T05:57:44.313Z,-9.70
2018-03-03T06:00:18.474Z,-9.70
2018-03-03T06:02:51.896Z,-9.70
2018-03-03T06:18:47.115Z,-9.70
2018-03-03T06:21:14.812Z,-9.70
2018-03-03T06:23:43.162Z,-9.70
2018-03-03T06:26:10.983Z,-9.70
2018-03-03T06:28:39.033Z,-9.70
2018-03-03T06:31:07.336Z,-9.70
2018-03-03T06:33:34.856Z,-9.70
2018-03-03T06:36:02.738Z,-9.70
2018-03-03T06:38:31.455Z,-9.70
2018-03-03T06:40:59.292Z,-9.70
2018-03-03T06:43:27.600Z,-9.60
2018-03-03T06:45:55.103Z,-9.60
2018-03-03T06:48:22.654Z,-9.50
2018-03-03T06:50:50.282Z,-9.50
2018-03-03T06:53:18.119Z,-9.60
2018-03-03T06:55:46.462Z,-9.40
2018-03-03T06:58:14.814Z,-9.50
2018-03-03T07:00:42.897Z,-9.50
2018-03-03T07:06:05.932Z,-9.40
2018-03-03T07:08:34.483Z,-9.40
2018-03-03T07:11:02.268Z,-9.40
2018-03-03T07:13:30.657Z,-9.30
2018-03-03T07:15:58.570Z,-9.30
2018-03-03T07:18:26.460Z,-9.30
2018-03-03T07:20:54.218Z,-9.30
2018-03-03T07:23:21.939Z,-9.20
2018-03-03T07:25:49.667Z,-9.20
2018-03-03T07:28:17.188Z,-9.10
2018-03-03T07:30:44.714Z,-9.10
2018-03-03T07:33:13.119Z,-9.00
2018-03-03T07:35:41.088Z,-9.00
2018-03-03T07:38:09.274Z,-9.00
2018-03-03T07:40:36.787Z,-9.00
2018-03-03T07:43:05.102Z,-8.70
2018-03-03T07:45:32.612Z,-8.70
2018-03-03T07:48:00.208Z,-8.60
2018-03-03T07:50:28.187Z,-8.70
2018-03-03T07:52:56.053Z,-8.70
2018-03-03T07:55:23.778Z,-8.60
2018-03-03T07:57:51.390Z,-8.70
2018-03-03T08:00:18.933Z,-8.60
2018-03-03T08:02:46.453Z,-8.40
2018-03-03T08:05:14.013Z,-8.50
2018-03-03T08:07:41.660Z,-8.30
2018-03-03T08:10:09.209Z,-8.30
2018-03-03T08:12:36.731Z,-8.10
2018-03-03T08:15:04.266Z,-6.90
2018-03-03T08:17:32.529Z,-5.40
2018-03-03T08:20:00.060Z,-5.40
2018-03-03T08:22:27.704Z,-4.50
2018-03-03T08:24:55.266Z,-3.60
2018-03-03T08:27:22.808Z,-4.30
2018-03-03T08:29:50.367Z,-4.00
2018-03-03T08:32:17.931Z,-3.80
2018-03-03T08:34:45.487Z,-3.70
2018-03-03T08:37:12.995Z,-3.00
2018-03-03T08:39:40.509Z,-3.20
2018-03-03T08:42:08.067Z,-3.90
2018-03-03T08:44:35.624Z,-3.10
2018-03-03T08:47:03.192Z,-2.70
2018-03-03T08:49:30.707Z,-2.60
2018-03-03T08:51:58.223Z,-2.30
2018-03-03T08:54:25.739Z,-2.10
2018-03-03T08:56:53.319Z,-1.70
2018-03-03T08:59:20.886Z,-1.20
2018-03-03T09:01:48.396Z,-0.90
2018-03-03T09:04:15.906Z,-1.50
2018-03-03T09:06:43.452Z,-1.20
2018-03-03T09:09:11.730Z,-0.60
2018-03-03T09:11:40.122Z,-0.60
2018-03-03T09:14:07.696Z,-0.70
2018-03-03T09:16:35.264Z,-1.00
2018-03-03T09:19:02.786Z,-1.50
2018-03-03T09:21:31.167Z,-2.60
2018-03-03T09:23:59.463Z,-2.00
2018-03-03T09:26:26.996Z,-2.00
2018-03-03T09:28:55.296Z,-2.80
2018-03-03T09:31:22.859Z,-2.80
2018-03-03T09:33:50.444Z,-2.70
2018-03-03T09:36:18.104Z,-2.10
2018-03-03T09:38:45.647Z,-2.10
2018-03-03T09:41:13.176Z,-3.10
2018-03-03T09:43:41.628Z,-2.30
2018-03-03T09:46:09.146Z,-2.30
2018-03-03T09:48:36.751Z,-2.10
2018-03-03T09:51:04.271Z,-2.90
2018-03-03T09:53:31.854Z,-2.60
2018-03-03T09:55:59.489Z,-2.40
2018-03-03T09:58:27.048Z,-2.70
2018-03-03T10:00:54.574Z,-2.90
2018-03-03T10:03:22.103Z,-3.10
2018-03-03T10:05:49.617Z,-2.90
2018-03-03T10:08:17.193Z,-3.80
2018-03-03T10:10:44.705Z,-3.20
2018-03-03T10:13:12.312Z,-3.20
2018-03-03T10:15:39.833Z,-3.00
2018-03-03T10:18:07.430Z,-3.00
2018-03-03T10:20:34.943Z,-3.30
2018-03-03T10:23:02.471Z,-2.70
2018-03-03T10:25:30.021Z,-2.70
2018-03-03T10:27:57.567Z,-3.10
2018-03-03T10:30:25.119Z,-2.30
2018-03-03T10:32:52.658Z,-2.50
2018-03-03T10:35:20.984Z,-2.30
2018-03-03T10:37:48.538Z,-2.30
2018-03-03T10:40:16.101Z,-1.90
2018-03-03T10:42:43.644Z,-1.60
2018-03-03T10:45:11.319Z,-2.10
2018-03-03T10:47:38.833Z,-2.10
2018-03-03T10:50:07.163Z,-2.40
2018-03-03T10:52:34.695Z,-2.40
2018-03-03T10:55:02.285Z,-1.80
2018-03-03T10:57:29.798Z,-2.10
2018-03-03T10:59:57.371Z,-2.30
2018-03-03T11:02:25.739Z,-2.10
2018-03-03T11:04:54.117Z,-2.20
2018-03-03T11:07:22.402Z,-2.00
2018-03-03T11:09:50.719Z,-1.80
2018-03-03T11:12:18.266Z,-1.80
2018-03-03T11:14:45.805Z,-1.50
2018-03-03T11:17:14.086Z,-1.70
2018-03-03T11:19:42.525Z,-2.00
2018-03-03T11:22:10.157Z,-2.00
2018-03-03T11:24:37.701Z,-1.70
2018-03-03T11:27:05.278Z,-1.60
2018-03-03T11:29:32.837Z,-1.10
2018-03-03T11:32:00.375Z,-0.90
2018-03-03T11:34:27.905Z,-1.70
2018-03-03T11:36:56.218Z,-1.10
2018-03-03T11:39:23.800Z,-1.10
2018-03-03T11:41:51.337Z,-1.20
2018-03-03T11:44:18.997Z,-1.20
2018-03-03T11:46:47.386Z,-1.20
2018-03-03T11:49:14.899Z,-1.20
2018-03-03T11:51:42.508Z,-1.00
2018-03-03T11:54:10.080Z,-1.50
2018-03-03T11:56:37.656Z,-1.00
2018-03-03T11:59:05.219Z,-1.00
2018-03-03T12:01:32.780Z,-1.10
2018-03-03T12:04:00.295Z,-1.20
2018-03-03T12:06:27.872Z,-1.20
2018-03-03T12:08:55.400Z,-1.30
2018-03-03T12:11:23.731Z,-1.70
2018-03-03T12:13:51.280Z,-1.70
2018-03-03T12:16:18.792Z,-1.70
2018-03-03T12:18:46.404Z,-1.50
2018-03-03T12:21:13.927Z,-1.50
2018-03-03T12:23:42.236Z,-1.40
2018-03-03T12:26:09.797Z,-1.40
2018-03-03T12:28:37.361Z,-1.50
2018-03-03T12:31:04.902Z,-1.80
2018-03-03T12:33:32.474Z,-1.70
2018-03-03T12:36:00.026Z,-1.70
2018-03-03T12:38:27.604Z,-1.70
2018-03-03T12:40:55.227Z,-1.70
2018-03-03T12:43:23.915Z,-1.60
2018-03-03T12:45:52.191Z,-1.80
2018-03-03T12:48:20.509Z,-1.90
2018-03-03T12:50:48.093Z,-1.90
2018-03-03T12:53:15.619Z,-1.90
2018-03-03T12:55:43.136Z,-1.90
2018-03-03T12:58:10.735Z,-1.80
2018-03-03T13:00:38.303Z,-1.70
2018-03-03T13:03:05.881Z,-1.70
2018-03-03T13:05:33.550Z,-1.70
2018-03-03T13:08:01.095Z,-1.80
2018-03-03T13:10:28.610Z,-1.70
2018-03-03T13:12:56.204Z,-1.50
2018-03-03T13:15:23.760Z,-1.50
2018-03-03T13:17:51.295Z,-1.50
2018-03-03T13:20:19.598Z,-1.40
2018-03-03T13:22:47.119Z,-1.40
2018-03-03T13:25:14.635Z,-1.30
2018-03-03T13:27:42.320Z,-1.10
2018-03-03T13:30:09.938Z,-1.30
2018-03-03T13:32:37.890Z,-1.30
2018-03-03T13:35:06.175Z,-1.00
2018-03-03T13:37:34.456Z,-0.90
2018-03-03T13:40:02.729Z,-0.80
2018-03-03T13:42:31.015Z,-1.10
2018-03-03T13:44:58.534Z,-1.20
2018-03-03T13:47:26.135Z,-1.30
2018-03-03T13:49:53.665Z,-1.40
2018-03-03T13:52:21.271Z,-1.30
2018-03-03T13:54:48.848Z,-1.20
2018-03-03T13:57:16.438Z,-1.00
2018-03-03T13:59:44.121Z,-1.00
2018-03-03T14:02:12.411Z,-0.80
2018-03-03T14:04:40.711Z,-1.00
2018-03-03T14:07:08.304Z,-1.00
2018-03-03T14:09:36.045Z,-1.10
2018-03-03T14:12:04.412Z,-1.20
2018-03-03T14:14:31.983Z,-1.20
2018-03-03T14:17:03.026Z,-1.10
2018-03-03T14:19:30.661Z,-0.90
2018-03-03T14:21:58.953Z,-0.90
2018-03-03T14:24:26.494Z,-1.00
2018-03-03T14:26:54.771Z,-1.00
2018-03-03T14:29:23.056Z,-1.00
2018-03-03T14:31:50.620Z,-1.00
2018-03-03T14:34:18.187Z,-1.00
2018-03-03T14:36:45.718Z,-1.20
2018-03-03T14:39:14.018Z,-0.90
2018-03-03T14:41:41.527Z,-1.00
2018-03-03T14:44:09.035Z,-1.00
2018-03-03T14:46:36.583Z,-0.90
2018-03-03T14:49:04.872Z,-0.90
2018-03-03T14:51:32.444Z,-1.00
2018-03-03T14:54:00.418Z,-0.90
2018-03-03T14:56:27.947Z,-1.00
2018-03-03T14:58:56.256Z,-1.00
2018-03-03T15:01:23.816Z,-1.00
2018-03-03T15:03:51.367Z,-1.00
2018-03-03T15:06:19.053Z,-1.00
2018-03-03T15:08:46.571Z,-0.90
2018-03-03T15:11:14.886Z,-0.90
2018-03-03T15:13:42.437Z,-0.90
2018-03-03T15:16:10.126Z,-0.90
2018-03-03T15:18:37.656Z,-0.90
2018-03-03T15:21:05.221Z,-0.90
2018-03-03T15:23:32.796Z,-0.80
2018-03-03T15:26:00.351Z,-1.00
2018-03-03T15:28:27.892Z,-1.00
2018-03-03T15:30:55.577Z,-1.00
2018-03-03T15:33:23.155Z,-1.10
2018-03-03T15:35:50.725Z,-1.10
2018-03-03T15:38:18.300Z,-1.20
2018-03-03T15:40:46.619Z,-1.20
2018-03-03T15:43:15.020Z,-1.20
2018-03-03T15:45:43.192Z,-1.20
2018-03-03T15:48:10.848Z,-1.20
2018-03-03T15:50:38.584Z,-1.20
2018-03-03T15:53:06.921Z,-1.20
2018-03-03T15:55:34.454Z,-1.20
2018-03-03T15:58:02.016Z,-1.30
2018-03-03T16:00:29.564Z,-1.30
2018-03-03T16:02:57.123Z,-1.40
2018-03-03T16:05:24.999Z,-1.20
2018-03-03T16:07:52.521Z,-1.20
2018-03-03T16:10:20.825Z,-1.50
2018-03-03T16:12:48.397Z,-1.50
2018-03-03T16:15:15.920Z,-1.50
2018-03-03T16:17:44.215Z,-1.50
2018-03-03T16:20:11.804Z,-1.60
2018-03-03T16:22:39.351Z,-1.60
2018-03-03T16:25:06.946Z,-1.50
2018-03-03T16:27:34.480Z,-1.70
2018-03-03T16:30:02.350Z,-1.60
2018-03-03T16:32:29.868Z,-1.60
2018-03-03T16:34:58.223Z,-1.70
2018-03-03T16:37:25.766Z,-1.80
2018-03-03T16:39:53.309Z,-1.80
2018-03-03T16:42:20.843Z,-1.90
2018-03-03T16:44:49.471Z,-1.90
2018-03-03T16:47:16.984Z,-2.00
2018-03-03T16:49:45.403Z,-2.00
2018-03-03T16:52:12.918Z,-2.00
2018-03-03T16:54:41.303Z,-2.10
2018-03-03T16:57:09.586Z,-2.10
2018-03-03T16:59:37.111Z,-2.10
2018-03-03T17:02:04.835Z,-2.10
2018-03-03T17:04:32.391Z,-2.20
2018-03-03T17:07:00.022Z,-2.20
2018-03-03T17:09:28.308Z,-2.30
2018-03-03T17:11:56.675Z,-2.30
2018-03-03T17:14:24.968Z,-2.30
2018-03-03T17:16:53.273Z,-2.40
2018-03-03T17:19:21.270Z,-2.50
2018-03-03T17:21:48.866Z,-2.40
2018-03-03T17:24:17.146Z,-2.50
2018-03-03T17:26:45.959Z,-2.50
2018-03-03T17:29:14.032Z,-2.50
2018-03-03T17:31:42.105Z,-2.50
2018-03-03T17:34:10.650Z,-2.60
2018-03-03T17:36:38.477Z,-2.50
2018-03-03T17:39:06.690Z,-2.60
2018-03-03T17:41:34.710Z,-2.70
2018-03-03T17:44:03.215Z,-2.60
2018-03-03T17:46:30.742Z,-2.70
2018-03-03T17:48:58.937Z,-2.80
2018-03-03T17:51:26.475Z,-2.80
2018-03-03T17:53:54.047Z,-2.80
2018-03-03T17:56:21.568Z,-2.80
2018-03-03T17:58:49.883Z,-2.90
2018-03-03T18:01:17.429Z,-2.90
2018-03-03T18:03:44.961Z,-3.00
2018-03-03T18:06:13.276Z,-2.90
2018-03-03T18:08:40.892Z,-2.90
2018-03-03T18:11:08.455Z,-2.80
2018-03-03T18:13:36.341Z,-2.90
2018-03-03T18:16:03.855Z,-2.90
2018-03-03T18:18:32.240Z,-2.90
2018-03-03T18:20:59.970Z,-2.90
2018-03-03T18:23:27.549Z,-2.90
2018-03-03T18:25:55.114Z,-3.00
2018-03-03T18:28:22.694Z,-3.00
2018-03-03T18:30:50.339Z,-2.90
2018-03-03T18:33:19.077Z,-2.90
2018-03-03T18:35:48.504Z,-3.00
2018-03-03T18:38:16.222Z,-3.10
2018-03-03T18:40:43.742Z,-3.00
2018-03-03T18:43:12.022Z,-3.00
2018-03-03T18:45:40.376Z,-3.00
2018-03-03T18:48:07.907Z,-3.00
2018-03-03T18:50:36.639Z,-3.00
2018-03-03T18:53:04.210Z,-3.00
2018-03-03T18:55:32.102Z,-3.00
2018-03-03T18:57:59.799Z,-3.00
2018-03-03T19:00:28.126Z,-3.00
2018-03-03T19:02:56.883Z,-3.00
2018-03-03T19:05:25.567Z,-3.00
2018-03-03T19:07:53.182Z,-3.00
2018-03-03T19:10:21.428Z,-3.10
2018-03-03T19:12:49.399Z,-3.10
2018-03-03T19:15:18.389Z,-3.00
2018-03-03T19:17:45.957Z,-3.00
2018-03-03T19:20:14.612Z,-3.00
2018-03-03T19:22:42.206Z,-3.00
2018-03-03T19:25:09.772Z,-3.00
2018-03-03T19:27:37.625Z,-3.00
2018-03-03T19:30:06.131Z,-3.00
2018-03-03T19:32:34.150Z,-3.00
2018-03-03T19:35:02.160Z,-3.00
2018-03-03T19:37:30.923Z,-2.90
2018-03-03T19:39:58.694Z,-2.90
2018-03-03T19:42:26.952Z,-2.90
2018-03-03T19:44:54.687Z,-2.90
2018-03-03T19:47:23.635Z,-2.90
2018-03-03T19:49:52.840Z,-2.90
2018-03-03T19:52:22.351Z,-2.90
2018-03-03T19:54:51.039Z,-2.90
2018-03-03T19:57:18.608Z,-2.90
2018-03-03T19:59:46.140Z,-3.00
2018-03-03T20:02:13.702Z,-2.90
2018-03-03T20:04:41.255Z,-3.00
2018-03-03T20:07:08.814Z,-2.90
2018-03-03T20:09:37.093Z,-2.90
2018-03-03T20:12:04.614Z,-2.90
2018-03-03T20:14:32.130Z,-2.90
2018-03-03T20:17:01.221Z,-2.90
2018-03-03T20:19:28.748Z,-2.90
2018-03-03T20:21:57.292Z,-2.90
2018-03-03T20:24:24.934Z,-2.90
2018-03-03T20:26:55.277Z,-2.90
2018-03-03T20:29:25.895Z,-2.80
2018-03-03T20:31:54.547Z,-2.90
2018-03-03T20:34:25.039Z,-2.80
2018-03-03T20:36:53.088Z,-2.80
2018-03-03T20:39:21.562Z,-2.80
2018-03-03T20:41:50.247Z,-2.80
2018-03-03T20:44:17.910Z,-2.80
2018-03-03T20:46:45.418Z,-2.80
2018-03-03T20:49:13.016Z,-2.80
2018-03-03T20:51:40.983Z,-2.80
2018-03-03T20:54:08.485Z,-2.80
2018-03-03T20:56:36.023Z,-2.80
2018-03-03T20:59:03.662Z,-2.80
2018-03-03T21:01:31.193Z,-2.80
2018-03-03T21:03:59.498Z,-2.80
2018-03-03T21:06:27.057Z,-2.80
2018-03-03T21:08:56.190Z,-2.80
2018-03-03T21:11:24.163Z,-2.80
2018-03-03T21:13:51.683Z,-2.80
2018-03-03T21:16:19.506Z,-2.80
2018-03-03T21:18:47.954Z,-2.80
2018-03-03T21:21:15.631Z,-2.80
2018-03-03T21:23:43.483Z,-2.80
2018-03-03T21:26:12.013Z,-2.90
2018-03-03T21:28:43.367Z,-2.90
2018-03-03T21:31:12.711Z,-2.90
2018-03-03T21:33:42.302Z,-2.80
2018-03-03T21:36:10.581Z,-2.90
2018-03-03T21:38:39.925Z,-2.90
2018-03-03T21:41:09.008Z,-2.90
2018-03-03T21:43:37.650Z,-2.90
2018-03-03T21:46:05.947Z,-2.90
2018-03-03T21:48:33.464Z,-2.90
2018-03-03T21:51:00.992Z,-2.90
2018-03-03T21:53:28.524Z,-2.90
2018-03-03T21:55:56.100Z,-2.90
2018-03-03T21:58:23.639Z,-2.90
2018-03-03T22:00:52.322Z,-3.00
2018-03-03T22:03:21.121Z,-3.00
2018-03-03T22:05:49.626Z,-3.00
2018-03-03T22:08:18.251Z,-3.00
2018-03-03T22:10:46.998Z,-3.00
2018-03-03T22:13:16.153Z,-3.00
2018-03-03T22:15:44.465Z,-3.00
2018-03-03T22:18:12.812Z,-3.00
2018-03-03T22:20:41.773Z,-3.00
2018-03-03T22:23:10.181Z,-3.00
2018-03-03T22:25:37.776Z,-3.10
2018-03-03T22:28:05.310Z,-3.00
2018-03-03T22:30:33.586Z,-3.10
2018-03-03T22:33:01.862Z,-3.10
2018-03-03T22:35:30.158Z,-3.10
2018-03-03T22:37:59.075Z,-3.10
2018-03-03T22:40:27.522Z,-3.20
2018-03-03T22:42:56.389Z,-3.10
2018-03-03T22:45:24.668Z,-3.10
2018-03-03T22:47:52.171Z,-3.20
2018-03-03T22:50:19.695Z,-3.10
2018-03-03T22:52:47.358Z,-3.10
2018-03-03T22:55:15.581Z,-3.10
2018-03-03T22:57:43.242Z,-3.10
2018-03-03T23:00:10.890Z,-3.10
2018-03-03T23:02:38.447Z,-3.10
2018-03-03T23:05:05.983Z,-3.10
2018-03-03T23:07:34.261Z,-3.20
2018-03-03T23:10:01.863Z,-3.20
2018-03-03T23:12:29.406Z,-3.20
2018-03-03T23:14:56.989Z,-3.10
2018-03-03T23:17:25.748Z,-3.10
2018-03-03T23:19:54.162Z,-3.10
2018-03-03T23:22:21.713Z,-3.20
2018-03-03T23:24:49.216Z,-3.20
2018-03-03T23:27:16.818Z,-3.20
2018-03-03T23:29:44.380Z,-3.10
2018-03-03T23:32:11.949Z,-3.20
2018-03-03T23:34:39.462Z,-3.20
2018-03-03T23:37:07.121Z,-3.20
2018-03-03T23:39:34.609Z,-3.20
2018-03-03T23:42:02.886Z,-3.20
2018-03-03T23:44:31.174Z,-3.20
2018-03-03T23:46:58.698Z,-3.20
2018-03-03T23:49:26.305Z,-3.20
2018-03-03T23:51:53.869Z,-3.20
2018-03-03T23:54:21.417Z,-3.20
2018-03-03T23:56:48.959Z,-3.20
2018-03-03T23:59:17.253Z,-3.30
